Maestro Lion — V7TU9 — position and weather

sailwx.info

Track history (hours):
 
Tides and Currents Weather Stations Pressure Air Temp Water Temp Dewpoint Dewpoint Depression Visibility Wind Speed Wind Dir Waves Ship Positions

Maestro Lion

Last reported at 2017-Nov-23 14:00 UTC. Time now 2017-Nov-24 15:13 UTC.
Position N 41°24' W 042°24'.

Length 171 m; draft 7.8 m.

Type: Cargo ship. MMSI: 538003888.

Wind from 010 at 13 knots

Barometer 1012.6 mb
Air temperature 16.0 ° C
Visibility: greater than 27.0 NM
Dewpoint 14.4 ° C
Water temperature 15.0 ° C

Date/timePositionNaut miles runAvg speedWind from/ knotsBaromVisibWave heightAir tempDewpointWater temp
2017-Nov-23 14:00N 41°24' W 042°24'   010 / 131012.627.0 16.014.415.0
2017-Nov-20 12:00N 40°48' W 026°24'   230 / 301005.727.0 19.015.918.0
2017-Nov-17 11:00N 49°06' W 005°48'10515.5 060 / 51027.227.0 14.010.5
2017-Nov-17 04:15N 49°51' W 003°22'313.7
2017-Nov-17 04:00N 49°53' W 003°18'714.1
2017-Nov-17 03:30N 49°56' W 003°08'714.8
2017-Nov-17 03:00N 49°59' W 002°58'915.6
2017-Nov-17 02:25N 50°02' W 002°44'716.5
2017-Nov-17 02:00N 50°04' W 002°34'2517.8
2017-Nov-17 00:36N 50°11' W 001°56'218.2
2017-Nov-17 00:30N 50°11' W 001°54'918.1
2017-Nov-17 00:00N 50°14' W 001°41'917.7
2017-Nov-16 23:30N 50°16' W 001°27'917.2
2017-Nov-16 23:00N 50°18' W 001°14'3514.5
2017-Nov-16 20:35N 50°28' W 000°21'113.2
2017-Nov-16 20:30N 50°28' W 000°20'612.8
2017-Nov-16 20:00N 50°30' W 000°10'712.5
2017-Nov-16 19:29N 50°32' E 000°00'612.3
2017-Nov-16 19:00N 50°33' E 000°09'612.3
2017-Nov-16 18:30N 50°35' E 000°18'612.8
2017-Nov-16 18:00N 50°37' E 000°28'713.5
2017-Nov-16 17:30N 50°40' E 000°37'714.5
2017-Nov-16 17:00N 50°44' E 000°47'714.9
2017-Nov-16 16:30N 50°49' E 000°56'815.1
2017-Nov-16 16:00N 50°53' E 001°06'815.1
2017-Nov-16 15:29N 50°58' E 001°15'714.8
2017-Nov-16 15:00N 51°03' E 001°24'714.1
2017-Nov-16 14:30N 51°07' E 001°33'612.9
2017-Nov-16 14:00N 51°11' E 001°40'612.7
2017-Nov-16 13:30N 51°15' E 001°48'612.4
2017-Nov-16 13:00N 51°21' E 001°53'612.3
2017-Nov-16 12:30N 51°26' E 001°57'612.2
2017-Nov-16 12:00N 51°31' E 002°03'612.4
2017-Nov-16 11:31N 51°36' E 002°10'612.5
2017-Nov-16 11:00N 51°41' E 002°17'713.0
2017-Nov-16 10:29N 51°45' E 002°24'33014.3
2017-Nov-15 11:20N 56°36' E 006°51'514.5
2017-Nov-15 11:00N 56°41' E 006°55'14112.1
2017-Nov-14 23:19N 57°47' E 010°45'413.3
2017-Nov-14 22:59N 57°44' E 010°51'4 8.2
2017-Nov-14 22:30N 57°40' E 010°53'611.6
2017-Nov-14 22:00N 57°37' E 011°02'713.9
2017-Nov-14 21:30N 57°34' E 011°14'714.0
2017-Nov-14 21:00N 57°29' E 011°23'713.7
2017-Nov-14 20:30N 57°24' E 011°32'714.1
2017-Nov-14 20:00N 57°20' E 011°42'714.3
2017-Nov-14 19:30N 57°15' E 011°51'914.2
2017-Nov-14 18:52N 57°07' E 012°01'  
Track history (hours):
 
Tides and Currents Weather Stations Pressure Air Temp Water Temp Dewpoint Dewpoint Depression Visibility Wind Speed Wind Dir Waves Ship Positions

Maestro Lion

Last reported at 2017-Nov-23 14:00 UTC. Time now 2017-Nov-24 15:13 UTC.
Position N 41°24' W 042°24'.

Length 171 m; draft 7.8 m.

Type: Cargo ship. MMSI: 538003888.

Wind from 010 at 13 knots

Barometer 1012.6 mb
Air temperature 16.0 ° C
Visibility: greater than 27.0 NM
Dewpoint 14.4 ° C
Water temperature 15.0 ° C

Date/timePositionNaut miles runAvg speedWind from/ knotsBaromVisibWave heightAir tempDewpointWater temp
2017-Nov-23 14:00N 41°24' W 042°24'   010 / 131012.627.0 16.014.415.0
2017-Nov-20 12:00N 40°48' W 026°24'   230 / 301005.727.0 19.015.918.0
2017-Nov-17 11:00N 49°06' W 005°48'10515.5 060 / 51027.227.0 14.010.5
2017-Nov-17 04:15N 49°51' W 003°22'313.7
2017-Nov-17 04:00N 49°53' W 003°18'714.1
2017-Nov-17 03:30N 49°56' W 003°08'714.8
2017-Nov-17 03:00N 49°59' W 002°58'915.6
2017-Nov-17 02:25N 50°02' W 002°44'716.5
2017-Nov-17 02:00N 50°04' W 002°34'2517.8
2017-Nov-17 00:36N 50°11' W 001°56'218.2
2017-Nov-17 00:30N 50°11' W 001°54'918.1
2017-Nov-17 00:00N 50°14' W 001°41'917.7
2017-Nov-16 23:30N 50°16' W 001°27'917.2
2017-Nov-16 23:00N 50°18' W 001°14'3514.5
2017-Nov-16 20:35N 50°28' W 000°21'113.2
2017-Nov-16 20:30N 50°28' W 000°20'612.8
2017-Nov-16 20:00N 50°30' W 000°10'712.5
2017-Nov-16 19:29N 50°32' E 000°00'612.3
2017-Nov-16 19:00N 50°33' E 000°09'612.3
2017-Nov-16 18:30N 50°35' E 000°18'612.8
2017-Nov-16 18:00N 50°37' E 000°28'713.5
2017-Nov-16 17:30N 50°40' E 000°37'714.5
2017-Nov-16 17:00N 50°44' E 000°47'714.9
2017-Nov-16 16:30N 50°49' E 000°56'815.1
2017-Nov-16 16:00N 50°53' E 001°06'815.1
2017-Nov-16 15:29N 50°58' E 001°15'714.8
2017-Nov-16 15:00N 51°03' E 001°24'714.1
2017-Nov-16 14:30N 51°07' E 001°33'612.9
2017-Nov-16 14:00N 51°11' E 001°40'612.7
2017-Nov-16 13:30N 51°15' E 001°48'612.4
2017-Nov-16 13:00N 51°21' E 001°53'612.3
2017-Nov-16 12:30N 51°26' E 001°57'612.2
2017-Nov-16 12:00N 51°31' E 002°03'612.4
2017-Nov-16 11:31N 51°36' E 002°10'612.5
2017-Nov-16 11:00N 51°41' E 002°17'713.0
2017-Nov-16 10:29N 51°45' E 002°24'33014.3
2017-Nov-15 11:20N 56°36' E 006°51'514.5
2017-Nov-15 11:00N 56°41' E 006°55'14112.1
2017-Nov-14 23:19N 57°47' E 010°45'413.3
2017-Nov-14 22:59N 57°44' E 010°51'4 8.2
2017-Nov-14 22:30N 57°40' E 010°53'611.6
2017-Nov-14 22:00N 57°37' E 011°02'713.9
2017-Nov-14 21:30N 57°34' E 011°14'714.0
2017-Nov-14 21:00N 57°29' E 011°23'713.7
2017-Nov-14 20:30N 57°24' E 011°32'714.1
2017-Nov-14 20:00N 57°20' E 011°42'714.3
2017-Nov-14 19:30N 57°15' E 011°51'914.2
2017-Nov-14 18:52N 57°07' E 012°01'  

Dump ship's entire track history